aviador You're here:

SLSA Decoded Metar

SANTA ANA in BOLIVIA
Report Time2018-06-18 15:00:00
UTC Time2018-06-18 15:24:35
Flight Rules vfr VFR
Wind160° at 10 kt
W.Decomp.*RWY 14: 8.8 kt HW 4.7 kt RCW
W.Rank160° ranks 7
Current wind is above 160° avg. (8.3)
Visibility9999 m
Phenomena:N/A
Clouds:N/A
Expected CloudBase > 4,000 ft AGL from Temp-Dew spread
CeilingNone
Temp22°C (ISA +8)
Dew Point12°C (53% RH)
AAT19.0°C
QNH1023 hPa
Density Alt1,250 ft
Elevation472 ft
Report Wrong Elevation
Raw Report
METAR SLSA 181500Z 16010KT 9999 NSC 22/12 Q1023=

Extra information for SLSA:More info

Metar Taf Metar & Taf Last 4 Metars F.Rules Stats Wind Profile Meteogram Temp Stats Airport Information Weather charts Add Link Nearby VenuesMetar ALERT Operation Metar Decoded Social comments